createdAt,value
2022-10-28T00:01:25.977Z,92.90
2022-10-28T00:04:01.065Z,87.90
2022-10-28T00:06:32.910Z,93.90
2022-10-28T00:09:03.775Z,94.60
2022-10-28T00:11:34.904Z,93.20
2022-10-28T00:14:06.198Z,83.90
2022-10-28T00:16:35.546Z,79.20
2022-10-28T00:19:05.846Z,82.90
2022-10-28T00:21:36.833Z,76.60
2022-10-28T00:24:06.630Z,75.60
2022-10-28T00:26:39.234Z,94.10
2022-10-28T00:29:10.193Z,75.80
2022-10-28T00:31:39.093Z,76.20
2022-10-28T00:34:11.928Z,83.10
2022-10-28T00:36:42.586Z,65.50
2022-10-28T00:39:19.587Z,66.70
2022-10-28T00:41:50.500Z,68.30
2022-10-28T00:44:37.137Z,79.90
2022-10-28T00:47:13.196Z,81.40
2022-10-28T00:49:43.120Z,66.50
2022-10-28T00:52:17.762Z,77.30
2022-10-28T00:54:46.521Z,76.50
2022-10-28T00:57:19.733Z,73.20
2022-10-28T01:13:28.638Z,75.80
2022-10-28T01:16:26.918Z,77.60
2022-10-28T01:19:34.210Z,77.20
2022-10-28T01:22:24.474Z,78.20
2022-10-28T01:25:21.705Z,102.40
2022-10-28T01:28:08.183Z,87.60
2022-10-28T01:31:15.159Z,149.10
2022-10-28T01:34:04.899Z,107.80
2022-10-28T01:37:00.937Z,155.80
2022-10-28T01:39:33.506Z,160.10
2022-10-28T01:42:10.434Z,108.90
2022-10-28T01:44:53.337Z,110.80
2022-10-28T01:47:28.790Z,130.70
2022-10-28T01:50:02.642Z,172.00
2022-10-28T01:52:32.442Z,145.40
2022-10-28T01:55:11.839Z,124.20
2022-10-28T01:57:42.182Z,102.30
2022-10-28T02:00:11.130Z,131.30
2022-10-28T02:02:43.430Z,142.50
2022-10-28T02:05:36.814Z,139.70
2022-10-28T02:08:11.219Z,139.10
2022-10-28T02:11:00.514Z,141.80
2022-10-28T02:13:44.427Z,133.50
2022-10-28T02:16:20.223Z,125.30
2022-10-28T02:19:16.391Z,182.10
2022-10-28T02:21:58.995Z,154.50
2022-10-28T02:24:45.325Z,152.60
2022-10-28T02:27:28.876Z,162.50
2022-10-28T02:30:11.520Z,155.80
2022-10-28T02:32:44.634Z,128.50
2022-10-28T02:35:25.723Z,124.40
2022-10-28T02:37:55.643Z,156.10
2022-10-28T02:40:28.043Z,120.80
2022-10-28T02:43:02.487Z,137.20
2022-10-28T02:45:54.352Z,145.70
2022-10-28T02:48:33.776Z,127.30
2022-10-28T02:51:11.995Z,152.60
2022-10-28T02:53:54.787Z,169.50
2022-10-28T02:56:23.206Z,181.70
2022-10-28T02:58:51.674Z,170.00
2022-10-28T03:01:19.913Z,200.10
2022-10-28T03:03:48.182Z,257.00
2022-10-28T03:06:16.506Z,220.60
2022-10-28T03:08:44.585Z,199.50
2022-10-28T03:11:12.638Z,168.80
2022-10-28T03:13:40.882Z,224.60
2022-10-28T03:16:10.614Z,173.10
2022-10-28T03:18:38.759Z,185.40
2022-10-28T03:21:07.698Z,155.70
2022-10-28T03:23:36.064Z,189.70
2022-10-28T03:26:04.172Z,150.60
2022-10-28T03:28:32.246Z,221.80
2022-10-28T03:31:00.462Z,175.90
2022-10-28T03:33:29.495Z,237.30
2022-10-28T03:35:57.726Z,183.70
2022-10-28T03:38:28.042Z,163.80
2022-10-28T03:40:56.330Z,145.60
2022-10-28T03:43:24.770Z,138.80
2022-10-28T03:45:53.306Z,156.70
2022-10-28T03:48:21.434Z,146.00
2022-10-28T03:50:54.210Z,162.40
2022-10-28T03:53:26.276Z,152.00
2022-10-28T03:55:57.831Z,121.90
2022-10-28T03:58:26.435Z,156.90
2022-10-28T04:00:55.341Z,173.10
2022-10-28T04:03:25.173Z,157.00
2022-10-28T04:05:53.249Z,151.30
2022-10-28T04:08:21.622Z,163.20
2022-10-28T04:10:50.481Z,119.10
2022-10-28T04:13:18.590Z,185.30
2022-10-28T04:15:46.702Z,179.20
2022-10-28T04:18:14.869Z,158.60
2022-10-28T04:20:42.892Z,228.90
2022-10-28T04:23:16.076Z,219.90
2022-10-28T04:25:44.437Z,203.80
2022-10-28T04:28:12.521Z,162.70
2022-10-28T04:30:40.582Z,143.10
2022-10-28T04:33:12.447Z,157.70
2022-10-28T04:35:42.938Z,153.90
2022-10-28T04:38:11.669Z,151.90
2022-10-28T04:40:40.409Z,198.90
2022-10-28T04:43:10.107Z,150.70
2022-10-28T04:45:39.498Z,163.80
2022-10-28T04:48:10.366Z,130.70
2022-10-28T04:50:38.565Z,136.70
2022-10-28T04:53:12.374Z,100.90
2022-10-28T04:55:40.585Z,95.90
2022-10-28T04:58:10.035Z,93.20
2022-10-28T05:00:38.128Z,89.10
2022-10-28T05:03:06.340Z,97.80
2022-10-28T05:05:34.451Z,87.00
2022-10-28T05:08:02.623Z,88.50
2022-10-28T05:10:31.937Z,86.20
2022-10-28T05:13:00.015Z,79.60
2022-10-28T05:15:28.467Z,79.50
2022-10-28T05:17:56.816Z,84.40
2022-10-28T05:20:25.177Z,88.10
2022-10-28T05:22:55.436Z,82.30
2022-10-28T05:25:24.396Z,82.70
2022-10-28T05:27:52.720Z,101.80
2022-10-28T05:30:21.084Z,118.70
2022-10-28T05:32:51.517Z,84.10
2022-10-28T05:35:23.086Z,92.30
2022-10-28T05:37:51.148Z,87.90
2022-10-28T05:40:19.651Z,87.20
2022-10-28T05:42:47.685Z,78.70
2022-10-28T05:45:16.691Z,92.70
2022-10-28T05:47:46.166Z,87.00
2022-10-28T05:50:16.665Z,79.70
2022-10-28T05:52:49.704Z,82.40
2022-10-28T05:55:19.935Z,86.20
2022-10-28T05:57:49.783Z,91.60
2022-10-28T06:00:20.021Z,87.20
2022-10-28T06:02:48.204Z,84.70
2022-10-28T06:05:17.042Z,81.70
2022-10-28T06:07:45.275Z,102.60
2022-10-28T06:10:13.311Z,87.30
2022-10-28T06:12:41.005Z,90.10
2022-10-28T06:15:09.418Z,85.60
2022-10-28T06:17:37.897Z,92.10
2022-10-28T06:20:06.440Z,92.50
2022-10-28T06:22:34.438Z,89.60
2022-10-28T06:25:02.788Z,91.00
2022-10-28T06:27:31.730Z,86.00
2022-10-28T06:29:59.898Z,79.60
2022-10-28T06:32:28.007Z,83.60
2022-10-28T06:34:56.166Z,81.10
2022-10-28T06:37:24.575Z,79.90
2022-10-28T06:39:53.109Z,83.50
2022-10-28T06:42:21.543Z,80.30
2022-10-28T06:44:50.756Z,80.10
2022-10-28T06:47:20.843Z,73.10
2022-10-28T06:49:49.594Z,76.10
2022-10-28T06:52:18.121Z,69.10
2022-10-28T06:54:46.397Z,75.20
2022-10-28T06:57:14.504Z,67.40
2022-10-28T06:59:43.129Z,71.50
2022-10-28T07:02:15.994Z,65.80
2022-10-28T07:04:44.391Z,60.80
2022-10-28T07:07:13.527Z,66.30
2022-10-28T07:09:43.929Z,67.40
2022-10-28T07:12:12.384Z,67.40
2022-10-28T07:14:40.560Z,66.00
2022-10-28T07:17:09.228Z,62.30
2022-10-28T07:19:37.693Z,67.20
2022-10-28T07:22:06.831Z,66.00
2022-10-28T07:24:35.008Z,65.30
2022-10-28T07:27:04.361Z,62.90
2022-10-28T07:29:32.842Z,67.10
2022-10-28T07:32:01.256Z,65.90
2022-10-28T07:34:29.380Z,62.80
2022-10-28T07:36:58.655Z,64.00
2022-10-28T07:39:26.958Z,58.90
2022-10-28T07:41:55.218Z,63.70
2022-10-28T07:44:23.323Z,65.80
2022-10-28T07:46:54.317Z,59.00
2022-10-28T07:49:25.589Z,60.00
2022-10-28T07:51:53.721Z,62.50
2022-10-28T07:54:21.929Z,57.80
2022-10-28T07:56:50.143Z,55.10
2022-10-28T07:59:25.821Z,57.90
2022-10-28T08:01:55.545Z,58.60
2022-10-28T08:04:23.784Z,52.90
2022-10-28T08:06:51.917Z,56.80
2022-10-28T08:09:19.981Z,56.50
2022-10-28T08:11:48.176Z,53.50
2022-10-28T08:14:16.272Z,53.90
2022-10-28T08:16:45.703Z,52.40
2022-10-28T08:19:13.816Z,59.10
2022-10-28T08:21:41.884Z,49.80
2022-10-28T08:24:09.997Z,53.20
2022-10-28T08:26:38.048Z,54.30
2022-10-28T08:29:07.735Z,53.60
2022-10-28T08:31:35.856Z,51.50
2022-10-28T08:34:05.424Z,54.20
2022-10-28T08:36:33.860Z,51.60
2022-10-28T08:39:03.153Z,43.60
2022-10-28T08:41:44.760Z,53.50
2022-10-28T08:44:31.609Z,45.30
2022-10-28T08:47:25.738Z,53.80
2022-10-28T08:50:02.546Z,49.10
2022-10-28T08:52:41.925Z,48.20
2022-10-28T08:55:20.078Z,49.40
2022-10-28T08:57:52.931Z,56.40
2022-10-28T09:00:26.413Z,46.00
2022-10-28T09:03:12.731Z,43.60
2022-10-28T09:05:50.675Z,43.80
2022-10-28T09:08:23.827Z,39.20
2022-10-28T09:11:10.399Z,42.90
2022-10-28T09:13:47.736Z,39.80
2022-10-28T09:16:37.862Z,37.90
2022-10-28T09:19:15.509Z,37.20
2022-10-28T09:22:02.301Z,34.00
2022-10-28T09:24:39.643Z,34.60
2022-10-28T09:27:34.503Z,31.00
2022-10-28T09:30:27.261Z,32.00
2022-10-28T09:32:55.563Z,27.60
2022-10-28T09:35:44.669Z,26.10
2022-10-28T09:38:35.077Z,26.90
2022-10-28T09:41:41.599Z,25.50
2022-10-28T09:44:49.669Z,26.10
2022-10-28T09:47:23.692Z,27.70
2022-10-28T09:49:57.315Z,29.10
2022-10-28T09:52:30.784Z,30.10
2022-10-28T09:55:03.498Z,27.50
2022-10-28T09:57:49.317Z,22.70
2022-10-28T10:00:35.098Z,24.10
2022-10-28T10:03:20.715Z,24.00
2022-10-28T10:05:52.168Z,28.10
2022-10-28T10:08:22.847Z,24.60
2022-10-28T10:10:56.642Z,24.20
2022-10-28T10:13:30.960Z,24.50
2022-10-28T10:16:13.886Z,22.70
2022-10-28T10:18:47.278Z,25.50
2022-10-28T10:21:16.748Z,32.00
2022-10-28T10:23:44.838Z,24.70
2022-10-28T10:26:14.751Z,22.00
2022-10-28T10:28:49.405Z,24.00
2022-10-28T10:31:35.299Z,27.00
2022-10-28T10:34:25.386Z,25.30
2022-10-28T10:36:56.163Z,25.90
2022-10-28T10:39:28.751Z,31.10
2022-10-28T10:41:56.941Z,25.60
2022-10-28T10:44:35.498Z,24.70
2022-10-28T10:47:06.219Z,25.70
2022-10-28T10:49:35.933Z,24.20
2022-10-28T10:52:04.620Z,26.80
2022-10-28T10:54:34.622Z,30.20
2022-10-28T10:57:20.477Z,23.70
2022-10-28T10:59:54.415Z,28.20
2022-10-28T11:02:27.903Z,28.10
2022-10-28T11:05:01.652Z,26.00
2022-10-28T11:09:58.597Z,27.20
2022-10-28T11:12:53.273Z,26.80
2022-10-28T11:15:26.904Z,32.00
2022-10-28T11:17:58.376Z,28.70
2022-10-28T11:20:38.265Z,31.90
2022-10-28T11:23:39.259Z,30.50
2022-10-28T11:26:26.181Z,32.20
2022-10-28T11:29:00.273Z,35.00
2022-10-28T11:32:05.005Z,31.60
2022-10-28T11:34:52.126Z,38.30
2022-10-28T11:37:50.810Z,35.30
2022-10-28T11:40:22.370Z,39.10
2022-10-28T11:43:15.325Z,35.80
2022-10-28T11:46:20.745Z,37.90
2022-10-28T11:49:11.477Z,39.50
2022-10-28T11:52:12.465Z,41.40
2022-10-28T11:55:14.469Z,35.90
2022-10-28T12:01:14.743Z,36.90
2022-10-28T12:04:13.695Z,38.50
2022-10-28T12:07:02.550Z,37.20
2022-10-28T12:09:30.583Z,39.50
2022-10-28T12:12:22.924Z,42.70
2022-10-28T12:15:12.740Z,38.20
2022-10-28T12:18:09.943Z,34.30
2022-10-28T12:20:45.491Z,38.70
2022-10-28T12:23:18.340Z,38.20
2022-10-28T12:25:50.136Z,42.00
2022-10-28T12:28:55.598Z,39.80
2022-10-28T12:31:34.703Z,39.50
2022-10-28T12:34:10.231Z,37.60
2022-10-28T12:36:45.248Z,43.00
2022-10-28T12:39:20.083Z,41.40
2022-10-28T12:42:00.880Z,39.40
2022-10-28T12:44:31.412Z,40.10
2022-10-28T12:47:05.688Z,40.50
2022-10-28T12:50:10.700Z,51.20
2022-10-28T12:53:02.314Z,43.20
2022-10-28T12:55:58.699Z,42.10
2022-10-28T12:58:53.373Z,36.80
2022-10-28T13:01:39.734Z,39.30
2022-10-28T13:04:12.920Z,36.60
2022-10-28T13:06:53.102Z,40.70
2022-10-28T13:09:58.760Z,40.00
2022-10-28T13:12:59.952Z,41.50
2022-10-28T13:15:56.685Z,39.10
2022-10-28T13:18:53.676Z,39.20
2022-10-28T13:21:30.968Z,41.80
2022-10-28T13:24:44.233Z,40.40
2022-10-28T13:27:30.568Z,37.50
2022-10-28T13:30:00.561Z,37.30
2022-10-28T13:32:35.785Z,33.90
2022-10-28T13:35:25.238Z,36.60
2022-10-28T13:37:55.339Z,35.20
2022-10-28T13:40:43.827Z,32.40
2022-10-28T13:43:51.481Z,34.10
2022-10-28T13:46:57.478Z,33.50
2022-10-28T13:50:08.708Z,32.60
2022-10-28T13:55:14.426Z,30.50
2022-10-28T13:57:46.706Z,35.30
2022-10-28T14:00:17.866Z,30.00
2022-10-28T14:02:58.651Z,28.50
2022-10-28T14:05:36.062Z,32.70
2022-10-28T14:08:35.835Z,33.40
2022-10-28T14:11:06.115Z,30.60
2022-10-28T14:13:47.819Z,31.20
2022-10-28T14:16:37.794Z,29.50
2022-10-28T14:19:17.202Z,31.40
2022-10-28T14:22:06.505Z,32.50
2022-10-28T14:24:39.651Z,32.20
2022-10-28T14:27:15.494Z,38.90
2022-10-28T14:29:56.347Z,43.30
2022-10-28T14:32:49.415Z,34.30
2022-10-28T14:35:29.326Z,37.40
2022-10-28T14:38:22.429Z,32.60
2022-10-28T14:41:35.471Z,29.70
2022-10-28T14:44:07.027Z,38.50
2022-10-28T14:46:44.233Z,37.40
2022-10-28T14:49:26.943Z,34.40
2022-10-28T14:51:56.870Z,37.20
2022-10-28T14:54:35.343Z,34.90
2022-10-28T14:57:06.238Z,46.30
2022-10-28T14:59:41.000Z,39.40
2022-10-28T15:02:27.682Z,41.00
2022-10-28T15:05:13.606Z,46.50
2022-10-28T15:07:42.679Z,42.80
2022-10-28T15:10:29.675Z,41.40
2022-10-28T15:12:59.034Z,41.70
2022-10-28T15:15:53.498Z,41.70
2022-10-28T15:18:25.919Z,37.10
2022-10-28T15:21:17.151Z,43.30
2022-10-28T15:26:16.911Z,38.80
2022-10-28T15:28:45.125Z,38.00
2022-10-28T15:31:30.690Z,38.80
2022-10-28T15:33:58.718Z,45.20
2022-10-28T15:36:27.326Z,42.90
2022-10-28T15:39:15.195Z,39.50
2022-10-28T15:42:02.577Z,41.50
2022-10-28T15:44:55.828Z,43.20
2022-10-28T15:47:45.138Z,47.20
2022-10-28T15:50:36.947Z,43.90
2022-10-28T15:53:11.189Z,47.00
2022-10-28T15:58:35.948Z,42.90
2022-10-28T16:01:09.819Z,43.40
2022-10-28T16:03:42.815Z,43.10
2022-10-28T16:06:26.676Z,43.90
2022-10-28T16:08:59.850Z,48.80
2022-10-28T16:11:29.213Z,58.50
2022-10-28T16:13:58.443Z,53.40
2022-10-28T16:16:32.884Z,51.80
2022-10-28T16:19:09.691Z,49.40
2022-10-28T16:21:39.031Z,50.20
2022-10-28T16:24:09.728Z,50.60
2022-10-28T16:27:19.182Z,48.80
2022-10-28T16:29:48.764Z,50.80
2022-10-28T16:32:20.005Z,48.20
2022-10-28T16:34:48.448Z,47.00
2022-10-28T16:37:35.136Z,49.00
2022-10-28T16:40:03.451Z,48.80
2022-10-28T16:42:32.055Z,47.30
2022-10-28T16:45:00.102Z,52.20
2022-10-28T16:47:29.220Z,50.10
2022-10-28T16:50:16.052Z,51.00
2022-10-28T16:52:44.344Z,55.40
2022-10-28T16:55:17.032Z,52.30
2022-10-28T16:57:45.292Z,50.10
2022-10-28T17:00:14.166Z,56.00
2022-10-28T17:02:43.165Z,50.70
2022-10-28T17:05:20.215Z,52.00
2022-10-28T17:07:49.507Z,49.10
2022-10-28T17:10:18.103Z,48.40
2022-10-28T17:13:03.602Z,52.70
2022-10-28T17:15:52.806Z,51.00
2022-10-28T17:18:38.882Z,48.30
2022-10-28T17:21:07.253Z,49.40
2022-10-28T17:23:35.502Z,47.80
2022-10-28T17:26:21.357Z,51.30
2022-10-28T17:28:52.949Z,52.50
2022-10-28T17:31:24.913Z,49.50
2022-10-28T17:34:12.509Z,50.00
2022-10-28T17:36:41.064Z,54.40
2022-10-28T17:39:15.278Z,53.40
2022-10-28T17:41:45.395Z,54.40
2022-10-28T17:44:31.323Z,53.40
2022-10-28T17:46:59.755Z,48.90
2022-10-28T17:49:28.292Z,48.00
2022-10-28T17:51:56.472Z,49.20
2022-10-28T17:56:57.961Z,44.90
2022-10-28T17:59:43.881Z,46.80
2022-10-28T18:02:14.603Z,48.30
2022-10-28T18:04:45.406Z,45.70
2022-10-28T18:07:13.697Z,45.90
2022-10-28T18:09:45.935Z,48.20
2022-10-28T18:12:14.228Z,46.10
2022-10-28T18:14:42.555Z,45.70
2022-10-28T18:17:14.536Z,48.10
2022-10-28T18:20:02.209Z,47.30
2022-10-28T18:22:30.981Z,52.10
2022-10-28T18:24:59.246Z,48.40
2022-10-28T18:27:30.798Z,48.70
2022-10-28T18:30:16.418Z,45.00
2022-10-28T18:32:44.750Z,45.90
2022-10-28T18:35:30.286Z,48.60
2022-10-28T18:38:01.543Z,44.20
2022-10-28T18:40:29.898Z,48.50
2022-10-28T18:42:57.998Z,43.80
2022-10-28T18:45:26.266Z,46.50
2022-10-28T18:47:54.949Z,44.00
2022-10-28T18:50:23.550Z,47.30
2022-10-28T18:53:09.277Z,50.00
2022-10-28T18:55:37.669Z,46.60
2022-10-28T18:58:05.968Z,48.10
2022-10-28T19:00:53.162Z,45.40
2022-10-28T19:03:39.704Z,43.30
2022-10-28T19:06:15.814Z,46.60
2022-10-28T19:09:04.206Z,45.50
2022-10-28T19:11:49.935Z,41.40
2022-10-28T19:14:36.118Z,43.50
2022-10-28T19:17:22.161Z,39.60
2022-10-28T19:19:51.647Z,45.60
2022-10-28T19:22:19.841Z,47.60
2022-10-28T19:24:48.433Z,47.80
2022-10-28T19:27:16.823Z,51.50
2022-10-28T19:29:45.057Z,45.40
2022-10-28T19:32:13.180Z,46.70
2022-10-28T19:34:59.014Z,61.40
2022-10-28T19:37:27.755Z,50.00
2022-10-28T19:39:56.643Z,43.90
2022-10-28T19:42:25.807Z,44.20
2022-10-28T19:44:55.936Z,48.80
2022-10-28T19:47:24.195Z,43.30
2022-10-28T19:49:52.340Z,47.50
2022-10-28T19:52:20.892Z,46.30
2022-10-28T19:55:08.799Z,44.80
2022-10-28T19:57:40.558Z,45.40
2022-10-28T20:00:10.052Z,46.60
2022-10-28T20:02:43.101Z,47.30
2022-10-28T20:05:11.386Z,48.20
2022-10-28T20:07:57.572Z,47.90
2022-10-28T20:10:25.925Z,48.60
2022-10-28T20:12:54.555Z,50.10
2022-10-28T20:15:23.097Z,47.60
2022-10-28T20:17:51.651Z,42.30
2022-10-28T20:20:20.573Z,50.20
2022-10-28T20:22:48.965Z,47.20
2022-10-28T20:25:17.453Z,45.30
2022-10-28T20:27:45.845Z,47.00
2022-10-28T20:30:31.513Z,45.90
2022-10-28T20:32:59.685Z,46.10
2022-10-28T20:35:45.051Z,44.60
2022-10-28T20:38:13.340Z,46.50
2022-10-28T20:40:41.722Z,44.00
2022-10-28T20:43:09.852Z,48.20
2022-10-28T20:45:38.982Z,46.20
2022-10-28T20:48:07.208Z,45.90
2022-10-28T20:50:35.473Z,45.40
2022-10-28T20:53:03.666Z,45.00
2022-10-28T20:55:32.002Z,48.50
2022-10-28T20:58:00.175Z,49.80
2022-10-28T21:00:28.717Z,45.90
2022-10-28T21:02:57.315Z,48.10
2022-10-28T21:05:26.004Z,45.80
2022-10-28T21:07:54.942Z,45.90
2022-10-28T21:10:23.979Z,45.90
2022-10-28T21:13:09.968Z,43.50
2022-10-28T21:15:39.976Z,44.20
2022-10-28T21:18:26.952Z,44.60
2022-10-28T21:20:57.452Z,42.40
2022-10-28T21:23:27.815Z,45.50
2022-10-28T21:26:01.356Z,44.40
2022-10-28T21:28:30.998Z,43.80
2022-10-28T21:31:07.702Z,43.50
2022-10-28T21:33:37.086Z,44.50
2022-10-28T21:36:11.065Z,45.00
2022-10-28T21:38:39.911Z,46.80
2022-10-28T21:41:13.247Z,44.20
2022-10-28T21:43:44.263Z,44.70
2022-10-28T21:46:13.123Z,40.50
2022-10-28T21:49:01.038Z,46.60
2022-10-28T21:51:47.096Z,42.20
2022-10-28T21:54:34.148Z,47.30
2022-10-28T21:57:02.847Z,43.90
2022-10-28T21:59:32.575Z,47.40
2022-10-28T22:02:01.358Z,49.00
2022-10-28T22:04:47.676Z,48.70
2022-10-28T22:07:16.307Z,46.80
2022-10-28T22:09:44.729Z,46.80
2022-10-28T22:12:30.818Z,48.10
2022-10-28T22:14:59.316Z,46.30
2022-10-28T22:17:29.496Z,52.10
2022-10-28T22:19:57.760Z,49.10
2022-10-28T22:22:43.669Z,47.40
2022-10-28T22:25:11.796Z,48.60
2022-10-28T22:27:40.137Z,52.20
2022-10-28T22:30:09.196Z,51.40
2022-10-28T22:32:54.959Z,48.90
2022-10-28T22:35:23.305Z,47.70
2022-10-28T22:38:08.701Z,50.10
2022-10-28T22:40:37.116Z,45.90
2022-10-28T22:43:05.470Z,44.30
2022-10-28T22:45:33.836Z,41.50
2022-10-28T22:48:19.332Z,46.30
2022-10-28T22:50:47.493Z,43.80
2022-10-28T22:53:15.544Z,38.80
2022-10-28T22:55:43.589Z,41.50
2022-10-28T22:58:12.006Z,40.20
2022-10-28T23:00:40.029Z,43.40
2022-10-28T23:03:08.348Z,39.00
2022-10-28T23:05:36.673Z,43.90
2022-10-28T23:08:04.865Z,50.40
2022-10-28T23:10:50.858Z,41.30
2022-10-28T23:13:18.913Z,43.00
2022-10-28T23:15:47.053Z,39.10
2022-10-28T23:18:15.104Z,38.20
2022-10-28T23:20:43.608Z,43.20
2022-10-28T23:23:29.344Z,40.50
2022-10-28T23:25:57.543Z,40.40
2022-10-28T23:28:25.809Z,41.00
2022-10-28T23:30:53.901Z,39.50
2022-10-28T23:33:22.133Z,42.80
2022-10-28T23:35:55.190Z,42.40
2022-10-28T23:38:41.392Z,47.60
2022-10-28T23:41:12.461Z,43.20
2022-10-28T23:43:40.633Z,44.20
2022-10-28T23:46:26.832Z,37.80
2022-10-28T23:48:54.960Z,44.10
2022-10-28T23:51:40.835Z,42.70
2022-10-28T23:54:09.346Z,42.10
2022-10-28T23:56:37.892Z,40.70
2022-10-28T23:59:05.951Z,41.00
